F/V Le Natif 2 — FKVW — position and weather

sailwx.info

Track history (hours):
 
Tides and Currents Weather Stations Pressure Air Temp Water Temp Dewpoint Dewpoint Depression Visibility Wind Speed Wind Dir Waves Ship Positions

F/V Le Natif 2

Last reported at 2018-Jun-21 08:56 UTC. Time now 2018-Jun-21 16:29 UTC.
Position N 46°42' W 001°57'.

Length 16 m.

Type: Fishing. MMSI: 228131600.

Date/timePositionNaut miles runAvg speedWind from/ knotsBaromVisibWave heightAir tempDewpointWater temp
2018-Jun-21 08:56N 46°42' W 001°57'0 0.0
2018-Jun-21 08:30N 46°42' W 001°57'0 0.0
2018-Jun-21 08:00N 46°42' W 001°57'0 0.2
2018-Jun-21 07:30N 46°42' W 001°56'0 0.0
2018-Jun-21 07:00N 46°42' W 001°56'0 0.0
2018-Jun-21 06:30N 46°42' W 001°56'0 0.0
2018-Jun-21 06:00N 46°42' W 001°56'1 1.1
2018-Jun-21 05:30N 46°42' W 001°57'4 8.6
2018-Jun-21 05:00N 46°40' W 002°03'4 8.8
2018-Jun-21 04:30N 46°38' W 002°09'4 8.7
2018-Jun-21 04:00N 46°36' W 002°15'4 8.4
2018-Jun-21 03:30N 46°35' W 002°21'4 8.2
2018-Jun-21 03:00N 46°34' W 002°26'4 8.1
2018-Jun-21 02:30N 46°32' W 002°32'4 8.2
2018-Jun-21 02:00N 46°31' W 002°37'4 8.4
2018-Jun-21 01:30N 46°29' W 002°43'4 7.6
2018-Jun-21 01:00N 46°28' W 002°48'3 6.1
2018-Jun-21 00:30N 46°27' W 002°52'3 6.1
2018-Jun-21 00:00N 46°25' W 002°56'3 6.8
2018-Jun-20 23:30N 46°24' W 003°01'4 7.6
2018-Jun-20 22:59N 46°23' W 003°06'44 2.5
2018-Jun-20 05:23N 46°08' W 004°06'31 2.1
2018-Jun-19 14:40N 46°18' W 003°25'28 9.3
2018-Jun-19 11:37N 46°28' W 002°46'11 9.2
2018-Jun-19 10:28N 46°31' W 002°32'16 9.0
2018-Jun-19 08:41N 46°37' W 002°10'2 8.7
2018-Jun-19 08:26N 46°38' W 002°07'4 8.9
2018-Jun-19 07:59N 46°39' W 002°01'4 8.3
2018-Jun-19 07:30N 46°42' W 001°57'0 0.1
2018-Jun-19 07:00N 46°42' W 001°57'0 0.0
2018-Jun-19 06:29N 46°42' W 001°57'0 0.2
2018-Jun-19 06:00N 46°42' W 001°56'0 0.0
2018-Jun-18 23:06N 46°42' W 001°56'0 0.1
2018-Jun-18 23:00N 46°42' W 001°56'0 0.0
2018-Jun-18 22:30N 46°42' W 001°56'0 0.0
2018-Jun-18 22:00N 46°42' W 001°56'0 0.0
2018-Jun-18 21:30N 46°42' W 001°56'0 0.0
2018-Jun-18 21:00N 46°42' W 001°56'4 8.1
2018-Jun-18 20:30N 46°40' W 002°02'5 9.4
2018-Jun-18 19:59N 46°38' W 002°08'5 9.5
2018-Jun-18 19:28N 46°36' W 002°15'17 9.4
2018-Jun-18 17:37N 46°30' W 002°38'1 9.4
2018-Jun-18 17:30N 46°29' W 002°40'64 5.2
2018-Jun-18 05:15N 46°09' W 004°08'33 3.1
2018-Jun-17 18:36N 46°38' W 004°32'1 3.5
2018-Jun-17 18:26N 46°37' W 004°32'2 0.8
2018-Jun-17 15:47N 46°36' W 004°34'5 0.8
2018-Jun-17 08:49N 46°37' W 004°26'2 3.6
2018-Jun-17 08:24N 46°36' W 004°25'19 7.1
2018-Jun-17 05:45N 46°18' W 004°16'36 6.7
2018-Jun-17 00:24N 46°21' W 003°24'4 9.4
2018-Jun-16 23:58N 46°22' W 003°19'12 9.4
2018-Jun-16 22:39N 46°26' W 003°02'3 9.7
2018-Jun-16 22:21N 46°27' W 002°58'35 9.2
2018-Jun-16 18:31N 46°38' W 002°09'2 8.9
2018-Jun-16 18:15N 46°39' W 002°06'2 8.8
2018-Jun-16 17:59N 46°40' W 002°02'4 8.6
2018-Jun-16 17:30N 46°42' W 001°57'0 0.0
2018-Jun-14 14:57N 46°42' W 001°57'0 0.1
2018-Jun-14 14:24N 46°42' W 001°57'0 0.0
2018-Jun-14 13:56N 46°42' W 001°56'0 0.2
2018-Jun-14 13:30N 46°42' W 001°57'1 2.2
2018-Jun-14 13:00N 46°41' W 001°58'5 9.6
2018-Jun-14 12:30N 46°43' W 002°04'27 8.0
2018-Jun-14 09:05N 47°06' W 002°27'1 3.7
2018-Jun-14 08:49N 47°06' W 002°29'1 3.2
2018-Jun-14 08:29N 47°07' W 002°28'2 3.3
2018-Jun-14 07:59N 47°07' W 002°26'2 3.2
2018-Jun-14 07:29N 47°06' W 002°28'1 1.3
2018-Jun-14 06:59N 47°06' W 002°29'1 1.5
2018-Jun-14 06:30N 47°07' W 002°30'0 0.4
2018-Jun-14 06:00N 47°07' W 002°29'2 3.7
2018-Jun-14 05:27N 47°05' W 002°30'4 7.5
2018-Jun-14 04:59N 47°01' W 002°31'4 7.5
2018-Jun-14 04:29N 46°57' W 002°30'4 7.5
2018-Jun-14 03:58N 46°54' W 002°30'28 2.3
2018-Jun-13 16:02N 46°29' W 002°11'0 6.9
2018-Jun-13 16:00N 46°29' W 002°11'4 6.8
2018-Jun-13 15:23N 46°32' W 002°07'3 6.7
2018-Jun-13 15:01N 46°34' W 002°05'3 6.6
2018-Jun-13 14:30N 46°37' W 002°02'3 6.6
2018-Jun-13 14:00N 46°40' W 001°59'3 5.3
2018-Jun-13 13:30N 46°42' W 001°57'0 0.2
2018-Jun-13 13:00N 46°42' W 001°56'0 0.2
2018-Jun-13 12:30N 46°42' W 001°57'4 8.4
2018-Jun-13 11:59N 46°43' W 002°03'5 9.7
2018-Jun-13 11:28N 46°45' W 002°10'28 8.2
2018-Jun-13 08:03N 47°10' W 002°29'0 1.4
2018-Jun-13 08:00N 47°10' W 002°28'1 1.8
2018-Jun-13 07:31N 47°10' W 002°27'2 2.6
2018-Jun-13 06:52N 47°10' W 002°25'1 3.4
2018-Jun-13 06:29N 47°10' W 002°27'0 0.2
2018-Jun-13 06:00N 47°10' W 002°26'3 6.4
2018-Jun-13 05:30N 47°07' W 002°30'4 8.1
2018-Jun-13 05:00N 47°04' W 002°28'4 7.9
2018-Jun-13 04:31N 46°60' W 002°26'4 7.5
2018-Jun-13 03:58N 46°56' W 002°24'4 8.0
2018-Jun-13 03:30N 46°53' W 002°21'4 8.0
2018-Jun-13 02:59N 46°49' W 002°18'4 8.0
2018-Jun-13 02:30N 46°46' W 002°15'4 7.8
2018-Jun-13 01:56N 46°44' W 002°09'4 8.2
2018-Jun-13 01:30N 46°43' W 002°04'4 8.4
2018-Jun-13 01:00N 46°41' W 001°59'1 2.9
2018-Jun-13 00:30N 46°42' W 001°57'38 4.9
2018-Jun-12 16:46N 47°10' W 002°33'3825.8
2018-Jun-12 15:18N 46°42' W 001°57'0 0.0
2018-Jun-12 15:00N 46°42' W 001°57'0 0.0
2018-Jun-12 14:30N 46°42' W 001°57'0 0.0
2018-Jun-12 14:00N 46°42' W 001°57'0 0.0
2018-Jun-12 13:04N 46°42' W 001°57'0 1.1
2018-Jun-12 13:00N 46°42' W 001°57'0 0.0
2018-Jun-12 12:30N 46°42' W 001°57'2 4.8
2018-Jun-12 12:00N 46°41' W 001°60'5 9.5
2018-Jun-12 11:29N 46°44' W 002°06'1 0.1
2018-Jun-12 02:00N 46°44' W 002°08'4 8.6
2018-Jun-12 01:29N 46°42' W 002°02'3 7.2
2018-Jun-12 01:00N 46°42' W 001°57'0 0.0
2018-Jun-11 20:14N 46°42' W 001°57'0 0.0
2018-Jun-11 20:00N 46°42' W 001°57'0 0.0
2018-Jun-11 19:30N 46°42' W 001°57'0 0.0
2018-Jun-11 19:00N 46°42' W 001°57'0 0.0
2018-Jun-11 18:30N 46°42' W 001°57'0 0.1
2018-Jun-11 18:00N 46°42' W 001°57'0 0.1
2018-Jun-11 17:30N 46°42' W 001°56'0 0.0
2018-Jun-11 17:00N 46°42' W 001°56'0 0.0
2018-Jun-11 16:30N 46°42' W 001°56'2 4.5
2018-Jun-11 16:00N 46°42' W 001°60'5 9.9
2018-Jun-11 15:27N 46°44' W 002°07'35 9.2
2018-Jun-11 11:39N 47°14' W 002°33'1 6.8
2018-Jun-11 11:30N 47°15' W 002°33'0 1.0
2018-Jun-11 11:00N 47°16' W 002°33'2 3.6
2018-Jun-11 10:21N 47°17' W 002°36'1 3.6
2018-Jun-11 10:00N 47°17' W 002°34'1 2.5
2018-Jun-11 09:29N 47°16' W 002°33'1 2.3
2018-Jun-11 08:59N 47°16' W 002°31'  
Track history (hours):
 
Tides and Currents Weather Stations Pressure Air Temp Water Temp Dewpoint Dewpoint Depression Visibility Wind Speed Wind Dir Waves Ship Positions

F/V Le Natif 2

Last reported at 2018-Jun-21 08:56 UTC. Time now 2018-Jun-21 16:29 UTC.
Position N 46°42' W 001°57'.

Length 16 m.

Type: Fishing. MMSI: 228131600.

Date/timePositionNaut miles runAvg speedWind from/ knotsBaromVisibWave heightAir tempDewpointWater temp
2018-Jun-21 08:56N 46°42' W 001°57'0 0.0
2018-Jun-21 08:30N 46°42' W 001°57'0 0.0
2018-Jun-21 08:00N 46°42' W 001°57'0 0.2
2018-Jun-21 07:30N 46°42' W 001°56'0 0.0
2018-Jun-21 07:00N 46°42' W 001°56'0 0.0
2018-Jun-21 06:30N 46°42' W 001°56'0 0.0
2018-Jun-21 06:00N 46°42' W 001°56'1 1.1
2018-Jun-21 05:30N 46°42' W 001°57'4 8.6
2018-Jun-21 05:00N 46°40' W 002°03'4 8.8
2018-Jun-21 04:30N 46°38' W 002°09'4 8.7
2018-Jun-21 04:00N 46°36' W 002°15'4 8.4
2018-Jun-21 03:30N 46°35' W 002°21'4 8.2
2018-Jun-21 03:00N 46°34' W 002°26'4 8.1
2018-Jun-21 02:30N 46°32' W 002°32'4 8.2
2018-Jun-21 02:00N 46°31' W 002°37'4 8.4
2018-Jun-21 01:30N 46°29' W 002°43'4 7.6
2018-Jun-21 01:00N 46°28' W 002°48'3 6.1
2018-Jun-21 00:30N 46°27' W 002°52'3 6.1
2018-Jun-21 00:00N 46°25' W 002°56'3 6.8
2018-Jun-20 23:30N 46°24' W 003°01'4 7.6
2018-Jun-20 22:59N 46°23' W 003°06'44 2.5
2018-Jun-20 05:23N 46°08' W 004°06'31 2.1
2018-Jun-19 14:40N 46°18' W 003°25'28 9.3
2018-Jun-19 11:37N 46°28' W 002°46'11 9.2
2018-Jun-19 10:28N 46°31' W 002°32'16 9.0
2018-Jun-19 08:41N 46°37' W 002°10'2 8.7
2018-Jun-19 08:26N 46°38' W 002°07'4 8.9
2018-Jun-19 07:59N 46°39' W 002°01'4 8.3
2018-Jun-19 07:30N 46°42' W 001°57'0 0.1
2018-Jun-19 07:00N 46°42' W 001°57'0 0.0
2018-Jun-19 06:29N 46°42' W 001°57'0 0.2
2018-Jun-19 06:00N 46°42' W 001°56'0 0.0
2018-Jun-18 23:06N 46°42' W 001°56'0 0.1
2018-Jun-18 23:00N 46°42' W 001°56'0 0.0
2018-Jun-18 22:30N 46°42' W 001°56'0 0.0
2018-Jun-18 22:00N 46°42' W 001°56'0 0.0
2018-Jun-18 21:30N 46°42' W 001°56'0 0.0
2018-Jun-18 21:00N 46°42' W 001°56'4 8.1
2018-Jun-18 20:30N 46°40' W 002°02'5 9.4
2018-Jun-18 19:59N 46°38' W 002°08'5 9.5
2018-Jun-18 19:28N 46°36' W 002°15'17 9.4
2018-Jun-18 17:37N 46°30' W 002°38'1 9.4
2018-Jun-18 17:30N 46°29' W 002°40'64 5.2
2018-Jun-18 05:15N 46°09' W 004°08'33 3.1
2018-Jun-17 18:36N 46°38' W 004°32'1 3.5
2018-Jun-17 18:26N 46°37' W 004°32'2 0.8
2018-Jun-17 15:47N 46°36' W 004°34'5 0.8
2018-Jun-17 08:49N 46°37' W 004°26'2 3.6
2018-Jun-17 08:24N 46°36' W 004°25'19 7.1
2018-Jun-17 05:45N 46°18' W 004°16'36 6.7
2018-Jun-17 00:24N 46°21' W 003°24'4 9.4
2018-Jun-16 23:58N 46°22' W 003°19'12 9.4
2018-Jun-16 22:39N 46°26' W 003°02'3 9.7
2018-Jun-16 22:21N 46°27' W 002°58'35 9.2
2018-Jun-16 18:31N 46°38' W 002°09'2 8.9
2018-Jun-16 18:15N 46°39' W 002°06'2 8.8
2018-Jun-16 17:59N 46°40' W 002°02'4 8.6
2018-Jun-16 17:30N 46°42' W 001°57'0 0.0
2018-Jun-14 14:57N 46°42' W 001°57'0 0.1
2018-Jun-14 14:24N 46°42' W 001°57'0 0.0
2018-Jun-14 13:56N 46°42' W 001°56'0 0.2
2018-Jun-14 13:30N 46°42' W 001°57'1 2.2
2018-Jun-14 13:00N 46°41' W 001°58'5 9.6
2018-Jun-14 12:30N 46°43' W 002°04'27 8.0
2018-Jun-14 09:05N 47°06' W 002°27'1 3.7
2018-Jun-14 08:49N 47°06' W 002°29'1 3.2
2018-Jun-14 08:29N 47°07' W 002°28'2 3.3
2018-Jun-14 07:59N 47°07' W 002°26'2 3.2
2018-Jun-14 07:29N 47°06' W 002°28'1 1.3
2018-Jun-14 06:59N 47°06' W 002°29'1 1.5
2018-Jun-14 06:30N 47°07' W 002°30'0 0.4
2018-Jun-14 06:00N 47°07' W 002°29'2 3.7
2018-Jun-14 05:27N 47°05' W 002°30'4 7.5
2018-Jun-14 04:59N 47°01' W 002°31'4 7.5
2018-Jun-14 04:29N 46°57' W 002°30'4 7.5
2018-Jun-14 03:58N 46°54' W 002°30'28 2.3
2018-Jun-13 16:02N 46°29' W 002°11'0 6.9
2018-Jun-13 16:00N 46°29' W 002°11'4 6.8
2018-Jun-13 15:23N 46°32' W 002°07'3 6.7
2018-Jun-13 15:01N 46°34' W 002°05'3 6.6
2018-Jun-13 14:30N 46°37' W 002°02'3 6.6
2018-Jun-13 14:00N 46°40' W 001°59'3 5.3
2018-Jun-13 13:30N 46°42' W 001°57'0 0.2
2018-Jun-13 13:00N 46°42' W 001°56'0 0.2
2018-Jun-13 12:30N 46°42' W 001°57'4 8.4
2018-Jun-13 11:59N 46°43' W 002°03'5 9.7
2018-Jun-13 11:28N 46°45' W 002°10'28 8.2
2018-Jun-13 08:03N 47°10' W 002°29'0 1.4
2018-Jun-13 08:00N 47°10' W 002°28'1 1.8
2018-Jun-13 07:31N 47°10' W 002°27'2 2.6
2018-Jun-13 06:52N 47°10' W 002°25'1 3.4
2018-Jun-13 06:29N 47°10' W 002°27'0 0.2
2018-Jun-13 06:00N 47°10' W 002°26'3 6.4
2018-Jun-13 05:30N 47°07' W 002°30'4 8.1
2018-Jun-13 05:00N 47°04' W 002°28'4 7.9
2018-Jun-13 04:31N 46°60' W 002°26'4 7.5
2018-Jun-13 03:58N 46°56' W 002°24'4 8.0
2018-Jun-13 03:30N 46°53' W 002°21'4 8.0
2018-Jun-13 02:59N 46°49' W 002°18'4 8.0
2018-Jun-13 02:30N 46°46' W 002°15'4 7.8
2018-Jun-13 01:56N 46°44' W 002°09'4 8.2
2018-Jun-13 01:30N 46°43' W 002°04'4 8.4
2018-Jun-13 01:00N 46°41' W 001°59'1 2.9
2018-Jun-13 00:30N 46°42' W 001°57'38 4.9
2018-Jun-12 16:46N 47°10' W 002°33'3825.8
2018-Jun-12 15:18N 46°42' W 001°57'0 0.0
2018-Jun-12 15:00N 46°42' W 001°57'0 0.0
2018-Jun-12 14:30N 46°42' W 001°57'0 0.0
2018-Jun-12 14:00N 46°42' W 001°57'0 0.0
2018-Jun-12 13:04N 46°42' W 001°57'0 1.1
2018-Jun-12 13:00N 46°42' W 001°57'0 0.0
2018-Jun-12 12:30N 46°42' W 001°57'2 4.8
2018-Jun-12 12:00N 46°41' W 001°60'5 9.5
2018-Jun-12 11:29N 46°44' W 002°06'1 0.1
2018-Jun-12 02:00N 46°44' W 002°08'4 8.6
2018-Jun-12 01:29N 46°42' W 002°02'3 7.2
2018-Jun-12 01:00N 46°42' W 001°57'0 0.0
2018-Jun-11 20:14N 46°42' W 001°57'0 0.0
2018-Jun-11 20:00N 46°42' W 001°57'0 0.0
2018-Jun-11 19:30N 46°42' W 001°57'0 0.0
2018-Jun-11 19:00N 46°42' W 001°57'0 0.0
2018-Jun-11 18:30N 46°42' W 001°57'0 0.1
2018-Jun-11 18:00N 46°42' W 001°57'0 0.1
2018-Jun-11 17:30N 46°42' W 001°56'0 0.0
2018-Jun-11 17:00N 46°42' W 001°56'0 0.0
2018-Jun-11 16:30N 46°42' W 001°56'2 4.5
2018-Jun-11 16:00N 46°42' W 001°60'5 9.9
2018-Jun-11 15:27N 46°44' W 002°07'35 9.2
2018-Jun-11 11:39N 47°14' W 002°33'1 6.8
2018-Jun-11 11:30N 47°15' W 002°33'0 1.0
2018-Jun-11 11:00N 47°16' W 002°33'2 3.6
2018-Jun-11 10:21N 47°17' W 002°36'1 3.6
2018-Jun-11 10:00N 47°17' W 002°34'1 2.5
2018-Jun-11 09:29N 47°16' W 002°33'1 2.3
2018-Jun-11 08:59N 47°16' W 002°31'  

Dump ship's entire track history